sensor_id;sensor_type;location;lat;lon;timestamp;temperature;humidity
10903;DHT22;5504;47.312;11.060;2023-08-12T00:01:55;18.50;94.10
10903;DHT22;5504;47.312;11.060;2023-08-12T00:04:20;18.40;94.20
10903;DHT22;5504;47.312;11.060;2023-08-12T00:06:47;18.40;94.30
10903;DHT22;5504;47.312;11.060;2023-08-12T00:09:13;18.40;94.50
10903;DHT22;5504;47.312;11.060;2023-08-12T00:11:40;18.30;94.50
10903;DHT22;5504;47.312;11.060;2023-08-12T00:14:06;18.30;94.70
10903;DHT22;5504;47.312;11.060;2023-08-12T00:16:32;18.30;94.70
10903;DHT22;5504;47.312;11.060;2023-08-12T00:18:57;18.20;94.70
10903;DHT22;5504;47.312;11.060;2023-08-12T00:21:25;18.10;94.70
10903;DHT22;5504;47.312;11.060;2023-08-12T00:23:50;18.10;94.70
10903;DHT22;5504;47.312;11.060;2023-08-12T00:26:16;18.20;95.00
10903;DHT22;5504;47.312;11.060;2023-08-12T00:28:42;18.20;94.90
10903;DHT22;5504;47.312;11.060;2023-08-12T00:31:08;18.20;94.90
10903;DHT22;5504;47.312;11.060;2023-08-12T00:33:34;18.20;94.90
10903;DHT22;5504;47.312;11.060;2023-08-12T00:35:59;18.10;94.90
10903;DHT22;5504;47.312;11.060;2023-08-12T00:38:25;18.10;94.90
10903;DHT22;5504;47.312;11.060;2023-08-12T00:40:51;18.20;94.80
10903;DHT22;5504;47.312;11.060;2023-08-12T00:43:16;18.10;94.80
10903;DHT22;5504;47.312;11.060;2023-08-12T00:45:42;17.90;95.30
10903;DHT22;5504;47.312;11.060;2023-08-12T00:48:08;18.00;95.00
10903;DHT22;5504;47.312;11.060;2023-08-12T00:50:36;18.00;95.10
10903;DHT22;5504;47.312;11.060;2023-08-12T00:53:03;17.90;95.20
10903;DHT22;5504;47.312;11.060;2023-08-12T00:55:32;17.90;95.40
10903;DHT22;5504;47.312;11.060;2023-08-12T00:57:58;17.90;95.20
10903;DHT22;5504;47.312;11.060;2023-08-12T01:00:24;17.80;95.20
10903;DHT22;5504;47.312;11.060;2023-08-12T01:02:51;17.80;95.30
10903;DHT22;5504;47.312;11.060;2023-08-12T01:05:17;17.80;95.40
10903;DHT22;5504;47.312;11.060;2023-08-12T01:07:43;17.90;95.20
10903;DHT22;5504;47.312;11.060;2023-08-12T01:10:10;17.90;95.10
10903;DHT22;5504;47.312;11.060;2023-08-12T01:15:48;17.90;95.20
10903;DHT22;5504;47.312;11.060;2023-08-12T01:18:16;17.90;95.30
10903;DHT22;5504;47.312;11.060;2023-08-12T01:20:43;17.80;95.30
10903;DHT22;5504;47.312;11.060;2023-08-12T01:23:13;17.80;95.20
10903;DHT22;5504;47.312;11.060;2023-08-12T01:25:40;17.70;95.20
10903;DHT22;5504;47.312;11.060;2023-08-12T01:28:06;17.60;95.30
10903;DHT22;5504;47.312;11.060;2023-08-12T01:30:37;17.60;95.50
10903;DHT22;5504;47.312;11.060;2023-08-12T01:33:09;17.60;95.60
10903;DHT22;5504;47.312;11.060;2023-08-12T01:35:40;17.60;95.70
10903;DHT22;5504;47.312;11.060;2023-08-12T01:38:08;17.70;95.50
10903;DHT22;5504;47.312;11.060;2023-08-12T01:40:36;17.60;95.40
10903;DHT22;5504;47.312;11.060;2023-08-12T01:43:04;17.60;95.60
10903;DHT22;5504;47.312;11.060;2023-08-12T01:45:31;17.60;95.50
10903;DHT22;5504;47.312;11.060;2023-08-12T01:47:57;17.50;95.40
10903;DHT22;5504;47.312;11.060;2023-08-12T01:50:23;17.50;95.40
10903;DHT22;5504;47.312;11.060;2023-08-12T01:52:49;17.40;95.40
10903;DHT22;5504;47.312;11.060;2023-08-12T01:55:15;17.50;95.60
10903;DHT22;5504;47.312;11.060;2023-08-12T01:57:41;17.50;95.60
10903;DHT22;5504;47.312;11.060;2023-08-12T02:00:07;17.40;95.70
10903;DHT22;5504;47.312;11.060;2023-08-12T02:02:33;17.40;95.70
10903;DHT22;5504;47.312;11.060;2023-08-12T02:04:59;17.40;95.70
10903;DHT22;5504;47.312;11.060;2023-08-12T02:07:25;17.30;95.90
10903;DHT22;5504;47.312;11.060;2023-08-12T02:09:50;17.30;96.00
10903;DHT22;5504;47.312;11.060;2023-08-12T02:12:16;17.30;96.10
10903;DHT22;5504;47.312;11.060;2023-08-12T02:14:42;17.40;96.10
10903;DHT22;5504;47.312;11.060;2023-08-12T02:17:07;17.30;96.00
10903;DHT22;5504;47.312;11.060;2023-08-12T02:19:34;17.20;95.90
10903;DHT22;5504;47.312;11.060;2023-08-12T02:22:01;17.30;96.00
10903;DHT22;5504;47.312;11.060;2023-08-12T02:24:27;17.30;95.90
10903;DHT22;5504;47.312;11.060;2023-08-12T02:26:53;17.30;95.80
10903;DHT22;5504;47.312;11.060;2023-08-12T02:29:19;17.30;95.90
10903;DHT22;5504;47.312;11.060;2023-08-12T02:31:44;17.30;95.90
10903;DHT22;5504;47.312;11.060;2023-08-12T02:34:10;17.20;95.70
10903;DHT22;5504;47.312;11.060;2023-08-12T02:36:36;17.10;95.90
10903;DHT22;5504;47.312;11.060;2023-08-12T02:39:02;17.10;95.90
10903;DHT22;5504;47.312;11.060;2023-08-12T02:41:27;17.00;95.90
10903;DHT22;5504;47.312;11.060;2023-08-12T02:43:53;17.00;96.00
10903;DHT22;5504;47.312;11.060;2023-08-12T02:46:19;17.00;96.10
10903;DHT22;5504;47.312;11.060;2023-08-12T02:48:45;17.00;96.10
10903;DHT22;5504;47.312;11.060;2023-08-12T02:51:13;16.90;96.10
10903;DHT22;5504;47.312;11.060;2023-08-12T02:53:38;16.90;96.30
10903;DHT22;5504;47.312;11.060;2023-08-12T02:56:04;16.90;96.30
10903;DHT22;5504;47.312;11.060;2023-08-12T02:58:30;16.90;96.50
10903;DHT22;5504;47.312;11.060;2023-08-12T03:00:55;16.90;96.60
10903;DHT22;5504;47.312;11.060;2023-08-12T03:03:21;16.90;96.60
10903;DHT22;5504;47.312;11.060;2023-08-12T03:05:48;16.80;96.50
10903;DHT22;5504;47.312;11.060;2023-08-12T03:08:14;16.80;96.40
10903;DHT22;5504;47.312;11.060;2023-08-12T03:10:40;16.80;96.40
10903;DHT22;5504;47.312;11.060;2023-08-12T03:13:06;16.80;96.30
10903;DHT22;5504;47.312;11.060;2023-08-12T03:15:31;16.90;96.40
10903;DHT22;5504;47.312;11.060;2023-08-12T03:17:57;16.90;96.30
10903;DHT22;5504;47.312;11.060;2023-08-12T03:20:23;16.90;96.20
10903;DHT22;5504;47.312;11.060;2023-08-12T03:22:48;16.90;96.30
10903;DHT22;5504;47.312;11.060;2023-08-12T03:25:14;16.80;96.30
10903;DHT22;5504;47.312;11.060;2023-08-12T03:27:41;16.70;96.40
10903;DHT22;5504;47.312;11.060;2023-08-12T03:30:07;16.70;96.50
10903;DHT22;5504;47.312;11.060;2023-08-12T03:32:33;16.70;96.70
10903;DHT22;5504;47.312;11.060;2023-08-12T03:34:59;16.70;96.50
10903;DHT22;5504;47.312;11.060;2023-08-12T03:37:26;16.60;96.60
10903;DHT22;5504;47.312;11.060;2023-08-12T03:39:51;16.60;96.60
10903;DHT22;5504;47.312;11.060;2023-08-12T03:42:17;16.60;96.60
10903;DHT22;5504;47.312;11.060;2023-08-12T03:44:46;16.60;96.50
10903;DHT22;5504;47.312;11.060;2023-08-12T03:47:11;16.60;96.60
10903;DHT22;5504;47.312;11.060;2023-08-12T03:49:37;16.60;96.70
10903;DHT22;5504;47.312;11.060;2023-08-12T03:52:04;16.60;96.70
10903;DHT22;5504;47.312;11.060;2023-08-12T03:54:32;16.50;96.80
10903;DHT22;5504;47.312;11.060;2023-08-12T03:56:58;16.40;97.00
10903;DHT22;5504;47.312;11.060;2023-08-12T03:59:23;16.50;97.00
10903;DHT22;5504;47.312;11.060;2023-08-12T04:01:49;16.50;96.90
10903;DHT22;5504;47.312;11.060;2023-08-12T04:04:15;16.50;96.90
10903;DHT22;5504;47.312;11.060;2023-08-12T04:06:40;16.40;96.80
10903;DHT22;5504;47.312;11.060;2023-08-12T04:09:08;16.30;97.00
10903;DHT22;5504;47.312;11.060;2023-08-12T04:11:33;16.30;97.20
10903;DHT22;5504;47.312;11.060;2023-08-12T04:13:59;16.30;97.20
10903;DHT22;5504;47.312;11.060;2023-08-12T04:16:25;16.30;97.20
10903;DHT22;5504;47.312;11.060;2023-08-12T04:18:50;16.40;97.20
10903;DHT22;5504;47.312;11.060;2023-08-12T04:21:16;16.40;96.70
10903;DHT22;5504;47.312;11.060;2023-08-12T04:23:42;16.50;96.70
10903;DHT22;5504;47.312;11.060;2023-08-12T04:26:07;16.50;96.60
10903;DHT22;5504;47.312;11.060;2023-08-12T04:28:33;16.50;96.70
10903;DHT22;5504;47.312;11.060;2023-08-12T04:30:59;16.40;96.80
10903;DHT22;5504;47.312;11.060;2023-08-12T04:33:24;16.30;97.10
10903;DHT22;5504;47.312;11.060;2023-08-12T04:35:52;16.30;97.20
10903;DHT22;5504;47.312;11.060;2023-08-12T04:38:18;16.30;97.30
10903;DHT22;5504;47.312;11.060;2023-08-12T04:40:44;16.30;97.20
10903;DHT22;5504;47.312;11.060;2023-08-12T04:43:10;16.30;97.20
10903;DHT22;5504;47.312;11.060;2023-08-12T04:45:36;16.30;97.30
10903;DHT22;5504;47.312;11.060;2023-08-12T04:48:02;16.40;97.40
10903;DHT22;5504;47.312;11.060;2023-08-12T04:50:31;16.40;97.30
10903;DHT22;5504;47.312;11.060;2023-08-12T04:52:57;16.50;97.10
10903;DHT22;5504;47.312;11.060;2023-08-12T04:55:25;16.40;97.10
10903;DHT22;5504;47.312;11.060;2023-08-12T04:57:51;16.40;97.30
10903;DHT22;5504;47.312;11.060;2023-08-12T05:00:17;16.30;97.30
10903;DHT22;5504;47.312;11.060;2023-08-12T05:02:43;16.40;97.50
10903;DHT22;5504;47.312;11.060;2023-08-12T05:05:09;16.40;97.50
10903;DHT22;5504;47.312;11.060;2023-08-12T05:07:34;16.50;97.50
10903;DHT22;5504;47.312;11.060;2023-08-12T05:10:00;16.50;97.40
10903;DHT22;5504;47.312;11.060;2023-08-12T05:12:26;16.60;97.50
10903;DHT22;5504;47.312;11.060;2023-08-12T05:14:52;16.70;97.30
10903;DHT22;5504;47.312;11.060;2023-08-12T05:17:18;16.80;97.50
10903;DHT22;5504;47.312;11.060;2023-08-12T05:19:43;16.90;97.50
10903;DHT22;5504;47.312;11.060;2023-08-12T05:22:10;17.00;97.50
10903;DHT22;5504;47.312;11.060;2023-08-12T05:24:36;17.10;97.50
10903;DHT22;5504;47.312;11.060;2023-08-12T05:27:02;17.20;97.50
10903;DHT22;5504;47.312;11.060;2023-08-12T05:29:28;17.30;97.00
10903;DHT22;5504;47.312;11.060;2023-08-12T05:31:54;17.40;96.90
10903;DHT22;5504;47.312;11.060;2023-08-12T05:34:19;17.50;96.60
10903;DHT22;5504;47.312;11.060;2023-08-12T05:36:45;17.50;96.50
10903;DHT22;5504;47.312;11.060;2023-08-12T05:39:11;17.60;96.50
10903;DHT22;5504;47.312;11.060;2023-08-12T05:41:36;17.70;96.30
10903;DHT22;5504;47.312;11.060;2023-08-12T05:44:02;17.90;96.20
10903;DHT22;5504;47.312;11.060;2023-08-12T05:46:28;18.00;96.10
10903;DHT22;5504;47.312;11.060;2023-08-12T05:48:54;18.20;96.00
10903;DHT22;5504;47.312;11.060;2023-08-12T05:51:20;18.30;95.90
10903;DHT22;5504;47.312;11.060;2023-08-12T05:53:45;18.40;96.10
10903;DHT22;5504;47.312;11.060;2023-08-12T05:56:11;18.60;96.00
10903;DHT22;5504;47.312;11.060;2023-08-12T05:58:37;18.50;95.60
10903;DHT22;5504;47.312;11.060;2023-08-12T06:01:02;18.80;95.90
10903;DHT22;5504;47.312;11.060;2023-08-12T06:03:28;19.00;95.30
10903;DHT22;5504;47.312;11.060;2023-08-12T06:05:54;19.30;95.00
10903;DHT22;5504;47.312;11.060;2023-08-12T06:08:20;19.70;94.70
10903;DHT22;5504;47.312;11.060;2023-08-12T06:10:45;20.00;93.30
10903;DHT22;5504;47.312;11.060;2023-08-12T06:13:11;20.40;93.90
10903;DHT22;5504;47.312;11.060;2023-08-12T06:15:37;20.50;91.70
10903;DHT22;5504;47.312;11.060;2023-08-12T06:18:02;20.60;91.60
10903;DHT22;5504;47.312;11.060;2023-08-12T06:20:28;20.50;91.30
10903;DHT22;5504;47.312;11.060;2023-08-12T06:22:55;21.00;92.20
10903;DHT22;5504;47.312;11.060;2023-08-12T06:25:21;21.40;92.50
10903;DHT22;5504;47.312;11.060;2023-08-12T06:27:47;21.60;91.90
10903;DHT22;5504;47.312;11.060;2023-08-12T06:30:13;21.70;91.50
10903;DHT22;5504;47.312;11.060;2023-08-12T06:32:39;21.90;92.00
10903;DHT22;5504;47.312;11.060;2023-08-12T06:35:05;21.90;91.10
10903;DHT22;5504;47.312;11.060;2023-08-12T06:37:31;22.10;90.80
10903;DHT22;5504;47.312;11.060;2023-08-12T06:39:57;22.20;90.30
10903;DHT22;5504;47.312;11.060;2023-08-12T06:42:23;22.10;88.90
10903;DHT22;5504;47.312;11.060;2023-08-12T06:44:55;22.00;86.90
10903;DHT22;5504;47.312;11.060;2023-08-12T06:47:21;22.00;88.30
10903;DHT22;5504;47.312;11.060;2023-08-12T06:49:47;22.10;90.20
10903;DHT22;5504;47.312;11.060;2023-08-12T06:52:12;22.30;90.20
10903;DHT22;5504;47.312;11.060;2023-08-12T06:54:38;22.40;89.30
10903;DHT22;5504;47.312;11.060;2023-08-12T06:57:04;22.50;88.70
10903;DHT22;5504;47.312;11.060;2023-08-12T06:59:30;22.60;88.50
10903;DHT22;5504;47.312;11.060;2023-08-12T07:01:55;22.70;89.50
10903;DHT22;5504;47.312;11.060;2023-08-12T07:04:21;22.60;86.10
10903;DHT22;5504;47.312;11.060;2023-08-12T07:06:47;22.40;85.30
10903;DHT22;5504;47.312;11.060;2023-08-12T07:09:13;22.40;89.00
10903;DHT22;5504;47.312;11.060;2023-08-12T07:11:39;22.50;88.60
10903;DHT22;5504;47.312;11.060;2023-08-12T07:14:05;22.50;90.20
10903;DHT22;5504;47.312;11.060;2023-08-12T07:16:31;22.30;86.40
10903;DHT22;5504;47.312;11.060;2023-08-12T07:18:57;22.30;89.00
10903;DHT22;5504;47.312;11.060;2023-08-12T07:21:22;22.40;90.50
10903;DHT22;5504;47.312;11.060;2023-08-12T07:23:48;22.50;90.20
10903;DHT22;5504;47.312;11.060;2023-08-12T07:26:14;22.60;89.90
10903;DHT22;5504;47.312;11.060;2023-08-12T07:28:41;22.60;87.70
10903;DHT22;5504;47.312;11.060;2023-08-12T07:31:07;22.60;90.10
10903;DHT22;5504;47.312;11.060;2023-08-12T07:33:32;22.60;87.10
10903;DHT22;5504;47.312;11.060;2023-08-12T07:35:58;22.60;88.50
10903;DHT22;5504;47.312;11.060;2023-08-12T07:38:24;22.80;90.20
10903;DHT22;5504;47.312;11.060;2023-08-12T07:40:50;22.90;90.80
10903;DHT22;5504;47.312;11.060;2023-08-12T07:43:16;22.90;86.90
10903;DHT22;5504;47.312;11.060;2023-08-12T07:45:42;23.00;88.20
10903;DHT22;5504;47.312;11.060;2023-08-12T07:48:07;23.10;87.60
10903;DHT22;5504;47.312;11.060;2023-08-12T07:50:33;23.30;89.40
10903;DHT22;5504;47.312;11.060;2023-08-12T07:52:59;23.60;90.80
10903;DHT22;5504;47.312;11.060;2023-08-12T07:55:25;23.80;90.70
10903;DHT22;5504;47.312;11.060;2023-08-12T07:57:51;24.10;90.70
10903;DHT22;5504;47.312;11.060;2023-08-12T08:00:16;24.00;87.90
10903;DHT22;5504;47.312;11.060;2023-08-12T08:02:42;23.70;81.50
10903;DHT22;5504;47.312;11.060;2023-08-12T08:05:08;23.80;85.60
10903;DHT22;5504;47.312;11.060;2023-08-12T08:07:34;23.70;84.20
10903;DHT22;5504;47.312;11.060;2023-08-12T08:09:59;23.80;83.80
10903;DHT22;5504;47.312;11.060;2023-08-12T08:12:25;24.00;83.90
10903;DHT22;5504;47.312;11.060;2023-08-12T08:14:51;24.00;81.70
10903;DHT22;5504;47.312;11.060;2023-08-12T08:17:16;24.10;85.60
10903;DHT22;5504;47.312;11.060;2023-08-12T08:19:42;24.00;84.50
10903;DHT22;5504;47.312;11.060;2023-08-12T08:22:08;24.20;84.80
10903;DHT22;5504;47.312;11.060;2023-08-12T08:24:34;24.50;85.10
10903;DHT22;5504;47.312;11.060;2023-08-12T08:27:00;24.60;84.40
10903;DHT22;5504;47.312;11.060;2023-08-12T08:29:25;24.60;81.60
10903;DHT22;5504;47.312;11.060;2023-08-12T08:31:51;24.90;86.00
10903;DHT22;5504;47.312;11.060;2023-08-12T08:34:17;25.20;85.60
10903;DHT22;5504;47.312;11.060;2023-08-12T08:36:42;25.50;85.30
10903;DHT22;5504;47.312;11.060;2023-08-12T08:39:11;25.70;82.30
10903;DHT22;5504;47.312;11.060;2023-08-12T08:41:39;25.80;83.90
10903;DHT22;5504;47.312;11.060;2023-08-12T08:44:08;25.90;84.50
10903;DHT22;5504;47.312;11.060;2023-08-12T08:46:34;25.80;79.00
10903;DHT22;5504;47.312;11.060;2023-08-12T08:49:00;25.90;82.90
10903;DHT22;5504;47.312;11.060;2023-08-12T08:51:27;25.90;81.20
10903;DHT22;5504;47.312;11.060;2023-08-12T08:53:54;26.00;78.20
10903;DHT22;5504;47.312;11.060;2023-08-12T08:56:21;26.20;83.80
10903;DHT22;5504;47.312;11.060;2023-08-12T08:58:47;26.10;77.70
10903;DHT22;5504;47.312;11.060;2023-08-12T09:01:14;26.20;79.70
10903;DHT22;5504;47.312;11.060;2023-08-12T09:03:41;26.40;80.20
10903;DHT22;5504;47.312;11.060;2023-08-12T09:06:08;26.40;77.90
10903;DHT22;5504;47.312;11.060;2023-08-12T09:08:34;26.50;75.90
10903;DHT22;5504;47.312;11.060;2023-08-12T09:11:02;26.50;78.20
10903;DHT22;5504;47.312;11.060;2023-08-12T09:13:28;26.90;81.20
10903;DHT22;5504;47.312;11.060;2023-08-12T09:15:54;26.90;79.70
10903;DHT22;5504;47.312;11.060;2023-08-12T09:18:20;27.00;81.90
10903;DHT22;5504;47.312;11.060;2023-08-12T09:20:50;27.10;80.30
10903;DHT22;5504;47.312;11.060;2023-08-12T09:23:17;27.20;77.80
10903;DHT22;5504;47.312;11.060;2023-08-12T09:25:44;27.20;75.50
10903;DHT22;5504;47.312;11.060;2023-08-12T09:28:11;27.30;76.90
10903;DHT22;5504;47.312;11.060;2023-08-12T09:30:37;27.20;79.50
10903;DHT22;5504;47.312;11.060;2023-08-12T09:33:05;27.40;75.40
10903;DHT22;5504;47.312;11.060;2023-08-12T09:35:41;27.30;69.20
10903;DHT22;5504;47.312;11.060;2023-08-12T09:38:12;27.10;69.50
10903;DHT22;5504;47.312;11.060;2023-08-12T09:40:38;26.70;67.40
10903;DHT22;5504;47.312;11.060;2023-08-12T09:43:04;26.80;69.60
10903;DHT22;5504;47.312;11.060;2023-08-12T09:45:31;27.10;76.60
10903;DHT22;5504;47.312;11.060;2023-08-12T09:47:58;27.40;74.80
10903;DHT22;5504;47.312;11.060;2023-08-12T09:50:25;27.50;69.90
10903;DHT22;5504;47.312;11.060;2023-08-12T09:52:52;27.60;71.20
10903;DHT22;5504;47.312;11.060;2023-08-12T09:55:20;27.90;78.30
10903;DHT22;5504;47.312;11.060;2023-08-12T09:57:48;28.00;73.70
10903;DHT22;5504;47.312;11.060;2023-08-12T10:00:16;28.00;75.00
10903;DHT22;5504;47.312;11.060;2023-08-12T10:02:46;28.20;76.10
10903;DHT22;5504;47.312;11.060;2023-08-12T10:05:17;27.60;65.50
10903;DHT22;5504;47.312;11.060;2023-08-12T10:07:45;27.40;71.00
10903;DHT22;5504;47.312;11.060;2023-08-12T10:10:12;27.70;70.50
10903;DHT22;5504;47.312;11.060;2023-08-12T10:12:38;28.00;74.70
10903;DHT22;5504;47.312;11.060;2023-08-12T10:15:05;27.90;68.90
10903;DHT22;5504;47.312;11.060;2023-08-12T10:17:34;28.20;71.70
10903;DHT22;5504;47.312;11.060;2023-08-12T10:20:01;28.30;67.60
10903;DHT22;5504;47.312;11.060;2023-08-12T10:22:30;28.50;66.50
10903;DHT22;5504;47.312;11.060;2023-08-12T10:24:59;28.50;67.10
10903;DHT22;5504;47.312;11.060;2023-08-12T10:27:26;29.00;74.30
10903;DHT22;5504;47.312;11.060;2023-08-12T10:29:52;29.70;67.80
10903;DHT22;5504;47.312;11.060;2023-08-12T10:32:18;30.30;72.00
10903;DHT22;5504;47.312;11.060;2023-08-12T10:34:44;30.30;66.80
10903;DHT22;5504;47.312;11.060;2023-08-12T10:37:10;30.30;66.90
10903;DHT22;5504;47.312;11.060;2023-08-12T10:39:38;30.30;66.90
10903;DHT22;5504;47.312;11.060;2023-08-12T10:42:05;30.00;67.00
10903;DHT22;5504;47.312;11.060;2023-08-12T10:44:50;30.20;64.40
10903;DHT22;5504;47.312;11.060;2023-08-12T10:47:17;29.90;66.80
10903;DHT22;5504;47.312;11.060;2023-08-12T10:49:51;29.90;67.10
10903;DHT22;5504;47.312;11.060;2023-08-12T10:52:29;29.60;68.10
10903;DHT22;5504;47.312;11.060;2023-08-12T10:54:55;29.40;66.60
10903;DHT22;5504;47.312;11.060;2023-08-12T10:57:40;29.30;69.60
10903;DHT22;5504;47.312;11.060;2023-08-12T11:00:11;29.00;68.10
10903;DHT22;5504;47.312;11.060;2023-08-12T11:02:38;29.00;68.00
10903;DHT22;5504;47.312;11.060;2023-08-12T11:05:12;29.00;67.60
10903;DHT22;5504;47.312;11.060;2023-08-12T11:08:02;29.20;72.80
10903;DHT22;5504;47.312;11.060;2023-08-12T11:10:32;29.30;72.00
10903;DHT22;5504;47.312;11.060;2023-08-12T11:12:58;29.30;71.50
10903;DHT22;5504;47.312;11.060;2023-08-12T11:15:38;29.10;71.00
10903;DHT22;5504;47.312;11.060;2023-08-12T11:18:08;29.40;74.10
10903;DHT22;5504;47.312;11.060;2023-08-12T11:20:36;29.80;72.90
10903;DHT22;5504;47.312;11.060;2023-08-12T11:23:03;30.20;71.70
10903;DHT22;5504;47.312;11.060;2023-08-12T11:25:30;29.80;65.10
10903;DHT22;5504;47.312;11.060;2023-08-12T11:27:56;29.90;69.70
10903;DHT22;5504;47.312;11.060;2023-08-12T11:30:23;29.90;68.00
10903;DHT22;5504;47.312;11.060;2023-08-12T11:32:51;29.90;71.50
10903;DHT22;5504;47.312;11.060;2023-08-12T11:35:18;30.30;70.20
10903;DHT22;5504;47.312;11.060;2023-08-12T11:37:46;30.90;73.00
10903;DHT22;5504;47.312;11.060;2023-08-12T11:40:13;30.90;63.60
10903;DHT22;5504;47.312;11.060;2023-08-12T11:42:47;31.20;67.30
10903;DHT22;5504;47.312;11.060;2023-08-12T11:45:19;31.00;60.00
10903;DHT22;5504;47.312;11.060;2023-08-12T11:47:45;31.40;67.10
10903;DHT22;5504;47.312;11.060;2023-08-12T11:50:18;31.60;68.60
10903;DHT22;5504;47.312;11.060;2023-08-12T11:52:45;31.60;64.50
10903;DHT22;5504;47.312;11.060;2023-08-12T11:55:12;31.80;67.10
10903;DHT22;5504;47.312;11.060;2023-08-12T11:57:39;31.30;61.00
10903;DHT22;5504;47.312;11.060;2023-08-12T12:00:07;31.00;63.70
10903;DHT22;5504;47.312;11.060;2023-08-12T12:02:51;30.70;61.90
10903;DHT22;5504;47.312;11.060;2023-08-12T12:05:21;30.50;64.70
10903;DHT22;5504;47.312;11.060;2023-08-12T12:07:48;30.50;63.10
10903;DHT22;5504;47.312;11.060;2023-08-12T12:10:31;30.80;61.00
10903;DHT22;5504;47.312;11.060;2023-08-12T12:12:58;30.90;62.60
10903;DHT22;5504;47.312;11.060;2023-08-12T12:15:24;31.50;63.50
10903;DHT22;5504;47.312;11.060;2023-08-12T12:17:50;31.60;57.10
10903;DHT22;5504;47.312;11.060;2023-08-12T12:20:16;31.10;57.10
10903;DHT22;5504;47.312;11.060;2023-08-12T12:22:43;31.20;59.50
10903;DHT22;5504;47.312;11.060;2023-08-12T12:25:11;31.60;59.70
10903;DHT22;5504;47.312;11.060;2023-08-12T12:27:39;31.80;58.90
10903;DHT22;5504;47.312;11.060;2023-08-12T12:30:09;31.80;57.40
10903;DHT22;5504;47.312;11.060;2023-08-12T12:32:35;31.80;58.50
10903;DHT22;5504;47.312;11.060;2023-08-12T12:35:01;31.80;65.90
10903;DHT22;5504;47.312;11.060;2023-08-12T12:37:27;31.90;64.70
10903;DHT22;5504;47.312;11.060;2023-08-12T12:39:53;31.90;66.30
10903;DHT22;5504;47.312;11.060;2023-08-12T12:42:18;32.10;59.60
10903;DHT22;5504;47.312;11.060;2023-08-12T12:44:44;32.00;61.10
10903;DHT22;5504;47.312;11.060;2023-08-12T12:47:10;31.70;61.40
10903;DHT22;5504;47.312;11.060;2023-08-12T12:49:40;31.50;63.60
10903;DHT22;5504;47.312;11.060;2023-08-12T12:52:09;31.70;64.00
10903;DHT22;5504;47.312;11.060;2023-08-12T12:54:35;32.00;62.60
10903;DHT22;5504;47.312;11.060;2023-08-12T12:57:01;32.40;63.20
10903;DHT22;5504;47.312;11.060;2023-08-12T12:59:27;32.70;62.80
10903;DHT22;5504;47.312;11.060;2023-08-12T13:01:53;32.90;61.70
10903;DHT22;5504;47.312;11.060;2023-08-12T13:04:19;32.90;60.60
10903;DHT22;5504;47.312;11.060;2023-08-12T13:06:45;32.70;59.90
10903;DHT22;5504;47.312;11.060;2023-08-12T13:09:10;32.70;57.90
10903;DHT22;5504;47.312;11.060;2023-08-12T13:11:36;32.70;57.20
10903;DHT22;5504;47.312;11.060;2023-08-12T13:14:02;32.40;59.30
10903;DHT22;5504;47.312;11.060;2023-08-12T13:16:29;32.30;60.90
10903;DHT22;5504;47.312;11.060;2023-08-12T13:18:55;32.30;60.80
10903;DHT22;5504;47.312;11.060;2023-08-12T13:21:21;32.20;60.40
10903;DHT22;5504;47.312;11.060;2023-08-12T13:23:47;32.30;60.40
10903;DHT22;5504;47.312;11.060;2023-08-12T13:26:12;32.60;56.90
10903;DHT22;5504;47.312;11.060;2023-08-12T13:28:38;32.30;58.50
10903;DHT22;5504;47.312;11.060;2023-08-12T13:31:04;32.70;56.30
10903;DHT22;5504;47.312;11.060;2023-08-12T13:33:30;33.10;56.30
10903;DHT22;5504;47.312;11.060;2023-08-12T13:35:55;33.60;59.20
10903;DHT22;5504;47.312;11.060;2023-08-12T13:38:21;33.60;52.10
10903;DHT22;5504;47.312;11.060;2023-08-12T13:40:47;33.70;54.40
10903;DHT22;5504;47.312;11.060;2023-08-12T13:43:14;33.90;54.40
10903;DHT22;5504;47.312;11.060;2023-08-12T13:45:39;34.10;57.10
10903;DHT22;5504;47.312;11.060;2023-08-12T13:48:05;34.20;51.50
10903;DHT22;5504;47.312;11.060;2023-08-12T13:50:31;33.90;50.90
10903;DHT22;5504;47.312;11.060;2023-08-12T13:52:58;33.70;50.50
10903;DHT22;5504;47.312;11.060;2023-08-12T13:55:25;33.40;50.90
10903;DHT22;5504;47.312;11.060;2023-08-12T13:57:51;33.60;54.00
10903;DHT22;5504;47.312;11.060;2023-08-12T14:00:17;33.60;58.30
10903;DHT22;5504;47.312;11.060;2023-08-12T14:02:43;33.60;56.90
10903;DHT22;5504;47.312;11.060;2023-08-12T14:05:10;33.30;52.00
10903;DHT22;5504;47.312;11.060;2023-08-12T14:07:36;33.20;57.00
10903;DHT22;5504;47.312;11.060;2023-08-12T14:10:03;33.30;58.60
10903;DHT22;5504;47.312;11.060;2023-08-12T14:12:29;33.20;57.50
10903;DHT22;5504;47.312;11.060;2023-08-12T14:14:55;33.00;56.80
10903;DHT22;5504;47.312;11.060;2023-08-12T14:17:20;33.00;56.10
10903;DHT22;5504;47.312;11.060;2023-08-12T14:19:49;33.00;53.80
10903;DHT22;5504;47.312;11.060;2023-08-12T14:22:16;33.10;57.60
10903;DHT22;5504;47.312;11.060;2023-08-12T14:24:42;32.90;60.80
10903;DHT22;5504;47.312;11.060;2023-08-12T14:27:09;32.70;60.40
10903;DHT22;5504;47.312;11.060;2023-08-12T14:29:35;32.40;60.70
10903;DHT22;5504;47.312;11.060;2023-08-12T14:32:01;32.10;60.00
10903;DHT22;5504;47.312;11.060;2023-08-12T14:34:26;32.00;61.30
10903;DHT22;5504;47.312;11.060;2023-08-12T14:36:52;31.70;60.00
10903;DHT22;5504;47.312;11.060;2023-08-12T14:39:18;31.60;64.70
10903;DHT22;5504;47.312;11.060;2023-08-12T14:41:43;31.40;70.90
10903;DHT22;5504;47.312;11.060;2023-08-12T14:44:09;31.30;73.70
10903;DHT22;5504;47.312;11.060;2023-08-12T14:46:35;31.10;71.40
10903;DHT22;5504;47.312;11.060;2023-08-12T14:49:00;31.00;69.50
10903;DHT22;5504;47.312;11.060;2023-08-12T14:51:26;30.90;69.10
10903;DHT22;5504;47.312;11.060;2023-08-12T14:53:52;30.90;69.30
10903;DHT22;5504;47.312;11.060;2023-08-12T14:56:18;30.70;68.80
10903;DHT22;5504;47.312;11.060;2023-08-12T14:58:44;30.60;71.70
10903;DHT22;5504;47.312;11.060;2023-08-12T15:01:10;30.50;73.30
10903;DHT22;5504;47.312;11.060;2023-08-12T15:03:35;30.50;72.90
10903;DHT22;5504;47.312;11.060;2023-08-12T15:06:03;30.50;74.80
10903;DHT22;5504;47.312;11.060;2023-08-12T15:08:32;30.40;77.10
10903;DHT22;5504;47.312;11.060;2023-08-12T15:10:58;30.30;74.60
10903;DHT22;5504;47.312;11.060;2023-08-12T15:13:25;30.50;75.00
10903;DHT22;5504;47.312;11.060;2023-08-12T15:15:51;30.50;72.90
10903;DHT22;5504;47.312;11.060;2023-08-12T15:18:17;30.30;70.20
10903;DHT22;5504;47.312;11.060;2023-08-12T15:20:44;30.40;70.00
10903;DHT22;5504;47.312;11.060;2023-08-12T15:23:09;30.30;63.10
10903;DHT22;5504;47.312;11.060;2023-08-12T15:25:35;30.40;63.40
10903;DHT22;5504;47.312;11.060;2023-08-12T15:28:01;30.50;66.00
10903;DHT22;5504;47.312;11.060;2023-08-12T15:30:28;30.50;65.60